createdAt,value
2023-01-05T00:00:47.539Z,6.79
2023-01-05T00:04:46.274Z,6.74
2023-01-05T00:08:33.055Z,6.73
2023-01-05T00:12:19.698Z,6.71
2023-01-05T00:16:05.391Z,6.69
2023-01-05T00:19:48.407Z,6.70
2023-01-05T00:23:32.029Z,6.68
2023-01-05T00:27:17.571Z,6.68
2023-01-05T00:30:44.385Z,6.67
2023-01-05T00:34:18.360Z,6.70
2023-01-05T00:37:56.116Z,6.71
2023-01-05T00:41:52.724Z,6.71
2023-01-05T00:45:35.257Z,6.72
2023-01-05T00:49:18.622Z,6.76
2023-01-05T00:53:02.226Z,6.79
2023-01-05T00:56:48.512Z,6.82
2023-01-05T01:00:17.198Z,6.82
2023-01-05T01:04:09.343Z,6.86
2023-01-05T01:07:35.886Z,6.88
2023-01-05T01:11:12.566Z,6.88
2023-01-05T01:15:10.111Z,6.91
2023-01-05T01:18:53.757Z,6.89
2023-01-05T01:22:37.619Z,6.90
2023-01-05T01:26:10.230Z,6.90
2023-01-05T01:29:40.732Z,6.89
2023-01-05T01:33:39.284Z,6.91
2023-01-05T01:37:05.601Z,6.91
2023-01-05T01:41:02.107Z,6.91
2023-01-05T01:44:50.599Z,6.88
2023-01-05T01:48:19.068Z,6.89
2023-01-05T01:51:56.588Z,6.88
2023-01-05T01:55:36.371Z,6.83
2023-01-05T01:59:14.282Z,6.79
2023-01-05T02:02:54.755Z,6.79
2023-01-05T02:06:26.794Z,6.79
2023-01-05T02:11:01.986Z,6.82
2023-01-05T02:15:11.140Z,6.83
2023-01-05T02:19:51.413Z,6.84
2023-01-05T02:23:24.785Z,6.83
2023-01-05T02:27:17.391Z,6.85
2023-01-05T02:31:01.435Z,6.88
2023-01-05T02:35:33.225Z,6.88
2023-01-05T02:39:12.141Z,6.91
2023-01-05T02:42:41.531Z,6.97
2023-01-05T02:46:15.966Z,6.99
2023-01-05T02:50:19.662Z,7.04
2023-01-05T02:53:49.921Z,7.07
2023-01-05T02:57:47.938Z,7.11
2023-01-05T03:01:29.985Z,7.11
2023-01-05T03:05:38.681Z,7.12
2023-01-05T03:09:08.188Z,7.13
2023-01-05T03:12:59.073Z,7.13
2023-01-05T03:16:37.253Z,7.17
2023-01-05T03:20:26.102Z,7.20
2023-01-05T03:24:32.399Z,7.20
2023-01-05T03:28:16.651Z,7.18
2023-01-05T03:32:20.854Z,7.18
2023-01-05T03:35:52.640Z,7.17
2023-01-05T03:39:43.376Z,7.20
2023-01-05T03:43:17.705Z,7.21
2023-01-05T03:46:54.929Z,7.27
2023-01-05T03:50:32.423Z,7.30
2023-01-05T03:54:10.773Z,7.34
2023-01-05T03:57:48.087Z,7.33
2023-01-05T04:01:24.477Z,7.33
2023-01-05T04:05:03.941Z,7.30
2023-01-05T04:08:59.785Z,7.29
2023-01-05T04:12:42.340Z,7.31
2023-01-05T04:16:31.477Z,7.33
2023-01-05T04:20:20.354Z,7.36
2023-01-05T04:23:46.994Z,7.36
2023-01-05T04:27:23.403Z,7.36
2023-01-05T04:31:19.825Z,7.37
2023-01-05T04:34:46.538Z,7.36
2023-01-05T04:38:22.849Z,7.36
2023-01-05T04:42:19.748Z,7.37
2023-01-05T04:46:08.561Z,7.40
2023-01-05T04:49:34.632Z,7.42
2023-01-05T04:53:29.588Z,7.44
2023-01-05T04:57:11.791Z,7.46
2023-01-05T05:00:37.471Z,7.48
2023-01-05T05:04:32.942Z,7.48
2023-01-05T05:07:58.240Z,7.47
2023-01-05T05:11:53.400Z,7.47
2023-01-05T05:15:39.888Z,7.47
2023-01-05T05:19:06.796Z,7.44
2023-01-05T05:22:44.227Z,7.41
2023-01-05T05:26:39.500Z,7.30
2023-01-05T05:30:03.324Z,7.16
2023-01-05T05:33:42.205Z,7.03
2023-01-05T05:37:18.867Z,6.95
2023-01-05T05:40:56.399Z,6.90
2023-01-05T05:44:35.246Z,6.82
2023-01-05T05:48:11.404Z,6.75
2023-01-05T05:51:50.223Z,6.64
2023-01-05T05:55:26.841Z,6.60
2023-01-05T05:59:06.544Z,6.54
2023-01-05T06:02:42.365Z,6.50
2023-01-05T06:06:40.307Z,6.50
2023-01-05T06:10:03.890Z,6.44
2023-01-05T06:13:42.434Z,6.41
2023-01-05T06:17:38.958Z,6.38
2023-01-05T06:21:22.594Z,6.37
2023-01-05T06:25:06.906Z,6.37
2023-01-05T06:28:56.020Z,6.30
2023-01-05T06:32:21.267Z,6.28
2023-01-05T06:35:59.300Z,6.27
2023-01-05T06:39:36.856Z,6.29
2023-01-05T06:43:13.383Z,6.28
2023-01-05T06:46:52.911Z,6.29
2023-01-05T06:50:29.060Z,6.30
2023-01-05T06:54:06.988Z,6.29
2023-01-05T06:57:45.101Z,6.27
2023-01-05T07:01:21.973Z,6.26
2023-01-05T07:04:59.243Z,6.29
2023-01-05T07:08:38.262Z,6.24
2023-01-05T07:12:35.517Z,6.25
2023-01-05T07:15:59.863Z,6.26
2023-01-05T07:19:38.834Z,6.29
2023-01-05T07:23:15.123Z,6.31
2023-01-05T07:26:56.320Z,6.32
2023-01-05T07:30:30.310Z,6.34
2023-01-05T07:34:09.946Z,6.39
2023-01-05T07:38:06.272Z,6.40
2023-01-05T07:41:50.557Z,6.44
2023-01-05T07:45:14.159Z,6.49
2023-01-05T07:49:10.993Z,6.53
2023-01-05T07:52:53.948Z,6.58
2023-01-05T07:56:19.511Z,6.63
2023-01-05T07:59:57.398Z,6.67
2023-01-05T08:03:36.015Z,6.70
2023-01-05T08:07:30.173Z,6.74
2023-01-05T08:11:15.692Z,6.81
2023-01-05T08:14:39.039Z,6.82
2023-01-05T08:18:19.617Z,6.86
2023-01-05T08:21:54.484Z,6.91
2023-01-05T08:25:32.006Z,6.91
2023-01-05T08:29:28.833Z,6.90
2023-01-05T08:32:52.063Z,6.94
2023-01-05T08:36:34.646Z,6.99
2023-01-05T08:40:27.888Z,7.05
2023-01-05T08:43:55.533Z,7.10
2023-01-05T08:47:30.076Z,7.10
2023-01-05T08:51:07.722Z,7.10
2023-01-05T08:55:07.286Z,7.08
2023-01-05T08:58:31.272Z,7.08
2023-01-05T09:02:12.393Z,7.09
2023-01-05T09:05:46.398Z,7.13
2023-01-05T09:09:24.569Z,7.17
2023-01-05T09:13:20.483Z,7.20
2023-01-05T09:20:37.753Z,7.25
2023-01-05T09:24:16.011Z,7.28
2023-01-05T09:27:50.620Z,7.31
2023-01-05T09:31:25.110Z,7.31
2023-01-05T09:35:24.739Z,7.28
2023-01-05T09:38:58.020Z,7.30
2023-01-05T09:42:32.381Z,7.29
2023-01-05T09:46:09.249Z,7.31
2023-01-05T09:49:42.016Z,7.32
2023-01-05T09:53:28.382Z,7.31
2023-01-05T09:57:09.142Z,7.32
2023-01-05T10:00:42.194Z,7.33
2023-01-05T10:04:28.388Z,7.33
2023-01-05T10:08:16.417Z,7.34
2023-01-05T10:12:10.331Z,7.41
2023-01-05T10:15:54.820Z,7.47
2023-01-05T10:19:39.465Z,7.57
2023-01-05T10:23:41.785Z,7.63
2023-01-05T10:27:26.374Z,7.70
2023-01-05T10:31:01.899Z,7.74
2023-01-05T10:34:50.165Z,7.79
2023-01-05T10:38:26.107Z,7.85
2023-01-05T10:42:18.883Z,7.91
2023-01-05T10:46:11.226Z,7.95
2023-01-05T10:49:49.277Z,8.07
2023-01-05T10:53:36.343Z,8.09
2023-01-05T10:57:48.623Z,8.10
2023-01-05T11:01:33.291Z,8.08
2023-01-05T11:05:31.710Z,8.09
2023-01-05T11:09:24.762Z,8.07
2023-01-05T11:12:55.927Z,7.99
2023-01-05T11:16:30.895Z,7.93
2023-01-05T11:20:22.678Z,7.89
2023-01-05T11:23:54.931Z,7.81
2023-01-05T11:27:25.170Z,7.82
2023-01-05T11:31:07.023Z,7.81
2023-01-05T11:34:49.813Z,7.81
2023-01-05T11:38:28.759Z,7.82
2023-01-05T11:42:25.950Z,7.90
2023-01-05T11:45:56.934Z,7.98
2023-01-05T11:49:31.499Z,8.04
2023-01-05T11:53:06.372Z,8.15
2023-01-05T11:56:45.244Z,8.25
2023-01-05T12:00:43.107Z,8.36
2023-01-05T12:05:00.714Z,8.39
2023-01-05T12:08:36.710Z,8.44
2023-01-05T12:13:03.466Z,8.42
2023-01-05T12:16:30.174Z,8.34
2023-01-05T12:20:45.170Z,8.27
2023-01-05T12:24:51.205Z,8.13
2023-01-05T12:28:42.462Z,7.91
2023-01-05T12:36:41.762Z,7.37
2023-01-05T12:40:40.064Z,6.98
2023-01-05T12:44:14.710Z,6.71
2023-01-05T12:48:18.415Z,6.43
2023-01-05T12:52:06.833Z,6.12
2023-01-05T12:55:39.558Z,5.95
2023-01-05T12:59:32.484Z,5.82
2023-01-05T13:03:01.904Z,5.70
2023-01-05T13:06:59.154Z,5.74
2023-01-05T13:11:04.996Z,5.72
2023-01-05T13:15:04.747Z,5.72
2023-01-05T13:18:33.557Z,5.66
2023-01-05T13:22:32.761Z,5.63
2023-01-05T13:26:17.728Z,5.63
2023-01-05T13:29:48.976Z,5.65
2023-01-05T13:34:02.857Z,5.68
2023-01-05T13:41:34.604Z,5.64
2023-01-05T13:45:54.836Z,5.68
2023-01-05T13:49:43.402Z,5.71
2023-01-05T13:53:14.059Z,5.79
2023-01-05T13:56:48.741Z,5.82
2023-01-05T14:00:31.284Z,5.81
2023-01-05T14:04:02.201Z,5.85
2023-01-05T14:07:41.284Z,5.87
2023-01-05T14:11:38.795Z,5.88
2023-01-05T14:15:37.934Z,5.90
2023-01-05T14:19:25.269Z,5.99
2023-01-05T14:22:51.001Z,6.09
2023-01-05T14:27:08.275Z,6.19
2023-01-05T14:30:34.135Z,6.25
2023-01-05T14:34:15.129Z,6.33
2023-01-05T14:38:14.099Z,6.38
2023-01-05T14:41:40.777Z,6.38
2023-01-05T14:45:30.316Z,6.37
2023-01-05T14:49:07.694Z,6.37
2023-01-05T14:53:02.051Z,6.34
2023-01-05T14:56:33.655Z,6.36
2023-01-05T15:00:11.750Z,6.35
2023-01-05T15:04:05.483Z,6.36
2023-01-05T15:07:54.121Z,6.40
2023-01-05T15:11:37.356Z,6.43
2023-01-05T15:15:29.766Z,6.45
2023-01-05T15:19:38.602Z,6.50
2023-01-05T15:23:24.716Z,6.51
2023-01-05T15:27:13.074Z,6.54
2023-01-05T15:31:23.416Z,6.58
2023-01-05T15:35:26.584Z,6.60
2023-01-05T15:38:55.523Z,6.64
2023-01-05T15:42:53.341Z,6.63
2023-01-05T15:46:24.372Z,6.66
2023-01-05T15:49:59.374Z,6.66
2023-01-05T15:53:35.616Z,6.65
2023-01-05T15:57:22.293Z,6.66
2023-01-05T16:01:12.981Z,6.76
2023-01-05T16:04:37.090Z,6.75
2023-01-05T16:08:18.143Z,6.69
2023-01-05T16:11:59.605Z,6.64
2023-01-05T16:15:32.994Z,6.64
2023-01-05T16:19:33.041Z,6.64
2023-01-05T16:23:29.195Z,6.63
2023-01-05T16:26:53.232Z,6.61
2023-01-05T16:30:54.071Z,6.59
2023-01-05T16:34:21.793Z,6.56
2023-01-05T16:38:21.581Z,6.55
2023-01-05T16:42:22.891Z,6.56
2023-01-05T16:45:49.297Z,6.51
2023-01-05T16:49:53.489Z,6.41
2023-01-05T16:53:24.551Z,6.21
2023-01-05T16:57:02.324Z,6.08
2023-01-05T17:00:38.713Z,5.94
2023-01-05T17:04:20.192Z,5.92
2023-01-05T17:08:07.317Z,5.90
2023-01-05T17:11:37.453Z,5.89
2023-01-05T17:15:21.079Z,5.89
2023-01-05T17:19:12.385Z,5.92
2023-01-05T17:22:56.008Z,5.97
2023-01-05T17:26:38.399Z,5.99
2023-01-05T17:30:22.595Z,5.96
2023-01-05T17:34:06.903Z,5.98
2023-01-05T17:37:32.024Z,5.99
2023-01-05T17:41:16.100Z,6.04
2023-01-05T17:44:46.196Z,5.99
2023-01-05T17:48:43.788Z,5.98
2023-01-05T17:52:08.313Z,5.98
2023-01-05T17:56:06.967Z,5.95
2023-01-05T17:59:49.058Z,5.90
2023-01-05T18:03:15.856Z,5.83
2023-01-05T18:06:50.175Z,5.79
2023-01-05T18:10:30.409Z,5.75
2023-01-05T18:14:27.949Z,5.77
2023-01-05T18:17:52.600Z,5.70
2023-01-05T18:21:29.039Z,5.70
2023-01-05T18:25:08.984Z,5.67
2023-01-05T18:28:44.756Z,5.64
2023-01-05T18:32:25.651Z,5.65
2023-01-05T18:36:08.274Z,5.65
2023-01-05T18:39:59.663Z,5.66
2023-01-05T18:43:31.265Z,5.66
2023-01-05T18:47:03.701Z,5.65
2023-01-05T18:50:46.343Z,5.67
2023-01-05T18:54:22.883Z,5.62
2023-01-05T18:57:55.375Z,5.53
2023-01-05T19:01:51.878Z,5.39
2023-01-05T19:05:15.997Z,5.32
2023-01-05T19:08:52.912Z,5.30
2023-01-05T19:12:49.642Z,5.19
2023-01-05T19:16:15.171Z,5.15
2023-01-05T19:19:52.165Z,5.13
2023-01-05T19:23:28.752Z,5.08
2023-01-05T19:27:10.215Z,5.02
2023-01-05T19:31:05.112Z,5.00
2023-01-05T19:34:31.937Z,4.97
2023-01-05T19:38:30.164Z,4.96
2023-01-05T19:41:55.512Z,4.91
2023-01-05T19:45:31.335Z,4.85
2023-01-05T19:49:27.941Z,4.72
2023-01-05T19:53:10.363Z,4.63
2023-01-05T19:56:35.202Z,4.58
2023-01-05T20:00:13.825Z,4.50
2023-01-05T20:04:08.396Z,4.43
2023-01-05T20:07:40.173Z,4.39
2023-01-05T20:11:13.848Z,4.38
2023-01-05T20:14:50.948Z,4.32
2023-01-05T20:18:29.028Z,4.22
2023-01-05T20:22:13.606Z,4.15
2023-01-05T20:25:43.641Z,4.13
2023-01-05T20:29:40.873Z,4.11
2023-01-05T20:33:06.526Z,4.09
2023-01-05T20:36:43.190Z,4.09
2023-01-05T20:40:38.702Z,4.04
2023-01-05T20:44:02.639Z,3.95
2023-01-05T20:47:47.373Z,3.93
2023-01-05T20:51:18.857Z,3.95
2023-01-05T20:54:55.941Z,3.89
2023-01-05T20:58:53.813Z,3.88
2023-01-05T21:02:24.459Z,3.84
2023-01-05T21:05:59.817Z,3.81
2023-01-05T21:09:33.812Z,3.85
2023-01-05T21:13:31.840Z,3.83
2023-01-05T21:16:55.754Z,3.83
2023-01-05T21:20:34.239Z,3.77
2023-01-05T21:24:35.102Z,3.77
2023-01-05T21:28:03.121Z,3.81
2023-01-05T21:31:38.351Z,3.78
2023-01-05T21:35:17.039Z,3.71
2023-01-05T21:39:23.032Z,3.71
2023-01-05T21:42:50.625Z,3.73
2023-01-05T21:46:46.180Z,3.69
2023-01-05T21:50:47.049Z,3.68
2023-01-05T21:54:30.524Z,3.64
2023-01-05T21:57:56.865Z,3.60
2023-01-05T22:01:32.958Z,3.60
2023-01-05T22:05:11.205Z,3.59
2023-01-05T22:09:08.098Z,3.57
2023-01-05T22:12:50.313Z,3.57
2023-01-05T22:16:15.305Z,3.55
2023-01-05T22:19:53.406Z,3.49
2023-01-05T22:23:31.829Z,3.47
2023-01-05T22:27:25.617Z,3.48
2023-01-05T22:31:14.178Z,3.49
2023-01-05T22:34:58.018Z,3.48
2023-01-05T22:38:21.350Z,3.45
2023-01-05T22:42:19.491Z,3.39
2023-01-05T22:45:43.874Z,3.35
2023-01-05T22:49:40.030Z,3.34
2023-01-05T22:53:22.105Z,3.34
2023-01-05T22:57:04.815Z,3.34
2023-01-05T23:00:30.126Z,3.33
2023-01-05T23:04:12.381Z,3.23
2023-01-05T23:08:02.899Z,3.23
2023-01-05T23:11:46.585Z,3.23
2023-01-05T23:15:32.370Z,3.23
2023-01-05T23:19:16.419Z,3.21
2023-01-05T23:23:01.761Z,3.19
2023-01-05T23:26:45.143Z,3.21
2023-01-05T23:30:27.551Z,3.17
2023-01-05T23:34:10.772Z,3.22
2023-01-05T23:37:55.180Z,3.22
2023-01-05T23:41:22.241Z,3.20
2023-01-05T23:44:58.768Z,3.17
2023-01-05T23:48:55.445Z,3.15
2023-01-05T23:52:18.680Z,3.11
2023-01-05T23:56:18.810Z,3.13
2023-01-05T23:59:44.709Z,3.11
